Time;durP1;ratioP1;P1;durP2;ratioP2;P2;SDS_P1;SDS_P2;PMS_P1;PMS_P2;Temp;Humidity;BMP_temperature;BMP_pressure;BME280_temperature;BME280_humidity;BME280_pressure;Samples;Min_cycle;Max_cycle;Signal;HPM_P1;HPM_P2
2021/08/16 00:04:06;;;;;;;0.30;0.30;;;;;;;15.74;87.05;99654.94;8455561;33;20984;-72
2021/08/16 00:09:11;;;;;;;0.95;0.95;;;;;;;15.69;88.19;99660.91;8456573;33;20449;-73
2021/08/16 00:14:14;;;;;;;0.80;0.80;;;;;;;15.77;88.10;99659.16;8458035;33;20488;-72
2021/08/16 00:19:17;;;;;;;1.05;1.05;;;;;;;15.72;87.47;99656.16;8462857;33;20420;-72
2021/08/16 00:24:22;;;;;;;0.70;0.50;;;;;;;15.75;87.80;99647.69;8460576;33;20137;-72
2021/08/16 00:29:25;;;;;;;0.35;0.35;;;;;;;15.73;87.25;99647.00;8462409;33;20430;-72
2021/08/16 00:34:28;;;;;;;0.80;0.80;;;;;;;15.75;87.38;99640.41;8467000;33;20544;-72
2021/08/16 00:39:33;;;;;;;1.35;0.50;;;;;;;15.74;87.07;99645.97;8493310;33;20669;-73
2021/08/16 00:44:36;;;;;;;3.25;0.50;;;;;;;15.39;87.61;99648.16;8462578;33;20644;-72
2021/08/16 00:49:39;;;;;;;0.30;0.30;;;;;;;15.44;86.12;99637.63;8461766;34;20236;-72
2021/08/16 00:54:43;;;;;;;0.38;0.38;;;;;;;15.46;85.01;99654.53;8463008;34;20724;-72
2021/08/16 00:59:47;;;;;;;13.00;1.83;;;;;;;15.29;85.38;99655.56;8464276;34;20482;-72
2021/08/16 01:04:50;;;;;;;0.90;0.88;;;;;;;15.21;85.14;99656.44;8464398;33;20449;-72
2021/08/16 01:09:54;;;;;;;0.50;0.50;;;;;;;15.22;84.17;99661.69;8468827;33;20488;-72
2021/08/16 01:14:57;;;;;;;0.32;0.32;;;;;;;15.23;83.93;99667.94;8468062;33;20969;-72
2021/08/16 01:20:01;;;;;;;3.40;1.00;;;;;;;15.18;82.98;99686.53;8468150;33;21023;-72
2021/08/16 01:25:08;;;;;;;0.70;0.70;;;;;;;14.97;83.54;99679.78;8466059;34;20170;-72
2021/08/16 01:30:18;;;;;;;0.85;0.85;;;;;;;14.91;83.24;99685.03;8466109;33;20418;-72
2021/08/16 01:35:22;;;;;;;0.38;0.38;;;;;;;14.80;83.59;99686.22;8491789;33;20145;-72
2021/08/16 01:40:26;;;;;;;1.00;1.00;;;;;;;14.88;83.29;99707.84;8471021;33;20416;-72
2021/08/16 01:45:30;;;;;;;0.50;0.50;;;;;;;14.97;83.41;99681.63;8467634;34;20693;-72
2021/08/16 01:50:34;;;;;;;1.05;1.05;;;;;;;14.80;83.26;99678.94;8468311;33;20424;-72
2021/08/16 01:55:38;;;;;;;0.47;0.47;;;;;;;14.67;82.93;99678.59;8468085;33;21108;-72
2021/08/16 02:00:42;;;;;;;0.73;0.60;;;;;;;14.95;82.55;99679.13;8467094;34;20224;-72
2021/08/16 02:05:46;;;;;;;0.88;0.85;;;;;;;14.38;81.31;99670.94;8469649;33;20558;-72
2021/08/16 02:10:49;;;;;;;1.13;0.95;;;;;;;14.60;81.02;99672.19;8481021;33;20661;-72
2021/08/16 02:15:53;;;;;;;0.55;0.55;;;;;;;14.56;80.41;99662.72;8485366;34;20142;-72
2021/08/16 02:20:56;;;;;;;1.17;0.88;;;;;;;14.36;79.51;99665.69;8485851;33;20648;-72
2021/08/16 02:25:59;;;;;;;0.40;0.40;;;;;;;14.30;79.80;99655.56;8490455;33;20430;-72
2021/08/16 02:31:04;;;;;;;0.65;0.65;;;;;;;14.35;80.14;99666.72;8491194;33;20449;-72
2021/08/16 02:36:07;;;;;;;0.30;0.30;;;;;;;14.30;79.82;99665.53;8490968;33;20633;-72
2021/08/16 02:41:10;;;;;;;0.68;0.68;;;;;;;14.38;80.00;99677.22;8491237;33;20468;-72
2021/08/16 02:46:15;;;;;;;1.05;0.85;;;;;;;14.06;80.87;99679.81;8490570;33;20544;-72
2021/08/16 02:51:18;;;;;;;0.90;0.90;;;;;;;14.02;80.88;99664.97;8490718;34;20681;-72
2021/08/16 02:56:21;;;;;;;1.50;1.40;;;;;;;14.01;81.33;99676.75;8490282;34;20229;-72
2021/08/16 03:01:25;;;;;;;2.35;0.75;;;;;;;13.95;81.96;99659.34;8489921;34;20236;-72
2021/08/16 03:06:29;;;;;;;0.90;0.90;;;;;;;13.91;81.93;99655.31;8485647;34;20225;-72
2021/08/16 03:11:32;;;;;;;2.13;0.70;;;;;;;14.00;82.25;99643.50;8486322;34;20243;-72
2021/08/16 03:16:36;;;;;;;1.30;1.27;;;;;;;13.83;82.04;99650.72;8483734;33;20239;-72
2021/08/16 03:21:39;;;;;;;0.68;0.68;;;;;;;13.93;82.34;99654.13;8488260;33;20420;-72
2021/08/16 03:26:42;;;;;;;1.15;1.15;;;;;;;13.92;82.09;99659.69;8476787;33;20449;-72
2021/08/16 03:31:47;;;;;;;1.65;1.55;;;;;;;14.05;81.93;99664.63;8471024;33;20518;-71
2021/08/16 03:36:50;;;;;;;0.93;0.93;;;;;;;13.95;82.13;99659.34;8470362;33;20719;-71
2021/08/16 03:41:53;;;;;;;0.60;0.60;;;;;;;14.08;82.28;99657.03;8473154;34;20771;-72
2021/08/16 03:46:58;;;;;;;0.55;0.55;;;;;;;13.98;81.20;99652.78;8475379;33;20501;-72
2021/08/16 03:52:01;;;;;;;0.95;0.95;;;;;;;14.04;80.44;99660.22;8466471;33;20156;-71
2021/08/16 03:57:05;;;;;;;0.60;0.60;;;;;;;14.13;80.04;99653.84;8466215;33;20528;-71
2021/08/16 04:02:09;;;;;;;9.30;5.53;;;;;;;14.18;79.39;99648.81;8469601;33;20178;-72
2021/08/16 04:07:12;;;;;;;17.55;8.35;;;;;;;14.13;79.28;99668.19;8477689;33;20426;-72
2021/08/16 04:12:16;;;;;;;14.02;7.13;;;;;;;14.11;78.76;99645.91;8480495;33;20436;-72
2021/08/16 04:17:20;;;;;;;16.65;8.02;;;;;;;14.00;78.28;99648.91;8469853;33;20231;-72
2021/08/16 04:22:23;;;;;;;20.83;9.43;;;;;;;14.21;78.41;99653.03;8467663;33;20461;-72
2021/08/16 04:27:27;;;;;;;20.35;9.32;;;;;;;14.21;78.79;99655.72;8488117;27;20451;-70
2021/08/16 04:32:31;;;;;;;20.40;11.30;;;;;;;14.12;79.74;99673.75;8517775;33;20192;-71
2021/08/16 04:37:35;;;;;;;19.77;11.10;;;;;;;13.90;81.36;99672.50;8517731;33;20461;-70
2021/08/16 04:42:39;;;;;;;19.33;11.25;;;;;;;13.88;82.03;99669.13;8518781;33;21078;-71
2021/08/16 04:47:45;;;;;;;21.70;11.27;;;;;;;13.32;84.00;99657.03;8518683;33;20226;-71
2021/08/16 04:52:50;;;;;;;14.88;9.32;;;;;;;13.34;85.71;99672.03;8518306;33;20196;-72
2021/08/16 04:57:53;;;;;;;15.57;8.65;;;;;;;13.21;84.28;99669.75;8519482;33;20471;-71
2021/08/16 05:03:01;;;;;;;21.43;10.70;;;;;;;13.38;83.33;99669.88;8525127;33;20904;-71
2021/08/16 05:08:05;;;;;;;18.63;9.20;;;;;;;13.41;81.14;99662.34;8537958;33;20534;-71
2021/08/16 05:13:08;;;;;;;17.50;7.97;;;;;;;13.81;78.82;99650.03;8539077;33;20560;-71
2021/08/16 05:18:13;;;;;;;12.60;7.50;;;;;;;13.70;77.85;99648.47;8542109;33;20520;-71
2021/08/16 05:23:18;;;;;;;17.65;5.90;;;;;;;13.81;76.85;99651.88;8538693;33;20144;-71
2021/08/16 05:28:24;;;;;;;14.45;8.32;;;;;;;13.96;76.45;99635.91;8534963;33;20454;-71
2021/08/16 05:33:28;;;;;;;16.77;7.82;;;;;;;14.23;75.75;99646.41;8523288;33;20132;-71
2021/08/16 05:38:31;;;;;;;18.35;8.65;;;;;;;13.94;76.06;99644.19;8522656;33;20141;-71
2021/08/16 05:43:34;;;;;;;18.58;8.38;;;;;;;14.25;75.94;99651.69;8529135;33;20457;-72
2021/08/16 05:48:39;;;;;;;21.08;8.27;;;;;;;14.49;74.12;99637.38;8527596;33;20433;-71
2021/08/16 05:53:42;;;;;;;17.73;8.80;;;;;;;15.13;73.04;99649.16;8527485;33;20239;-71
2021/08/16 05:58:45;;;;;;;18.70;7.78;;;;;;;14.73;73.19;99656.31;8527327;33;20190;-72
2021/08/16 06:03:49;;;;;;;14.95;8.50;;;;;;;14.66;73.21;99655.28;8537272;33;20148;-70
2021/08/16 06:08:52;;;;;;;15.57;8.20;;;;;;;14.77;72.86;99652.25;8541600;33;20472;-71
2021/08/16 06:13:55;;;;;;;23.73;10.18;;;;;;;14.68;73.50;99653.28;8543442;33;20517;-71
2021/08/16 06:19:00;;;;;;;17.90;9.18;;;;;;;14.64;73.40;99653.78;8548040;33;20438;-71
2021/08/16 06:24:03;;;;;;;16.67;9.48;;;;;;;14.69;72.91;99646.84;8547980;33;20187;-71
2021/08/16 06:29:07;;;;;;;21.85;10.48;;;;;;;14.61;73.63;99646.84;8545995;33;20609;-71
2021/08/16 06:34:12;;;;;;;15.15;8.43;;;;;;;14.68;72.66;99644.31;8546849;33;20576;-71
2021/08/16 06:39:18;;;;;;;19.73;9.27;;;;;;;14.60;72.70;99635.19;8542836;33;20449;-71
2021/08/16 06:44:25;;;;;;;18.77;9.30;;;;;;;14.59;73.13;99647.03;8543005;33;20468;-72
2021/08/16 06:49:30;;;;;;;16.52;9.70;;;;;;;14.49;73.72;99634.69;8541019;33;20425;-72
2021/08/16 06:54:33;;;;;;;19.52;10.25;;;;;;;14.67;72.93;99640.75;8532358;33;20211;-71
2021/08/16 06:59:36;;;;;;;19.67;9.30;;;;;;;14.68;72.97;99641.63;8529757;33;20149;-72
2021/08/16 07:04:40;;;;;;;18.52;8.40;;;;;;;14.96;71.88;99655.63;8529353;33;20183;-72
2021/08/16 07:09:43;;;;;;;14.50;8.30;;;;;;;14.73;72.89;99647.38;8527350;33;20402;-72
2021/08/16 07:14:47;;;;;;;15.13;8.65;;;;;;;14.58;72.90;99666.09;8526230;33;20516;-72
2021/08/16 07:19:52;;;;;;;23.05;11.40;;;;;;;14.91;72.34;99653.44;8526027;33;21202;-72
2021/08/16 07:24:55;;;;;;;18.55;10.48;;;;;;;14.91;72.36;99647.19;8526332;33;20402;-72
2021/08/16 07:29:58;;;;;;;18.90;10.00;;;;;;;14.99;72.67;99666.09;8528463;33;20490;-73
2021/08/16 07:35:02;;;;;;;14.68;8.18;;;;;;;14.55;73.67;99669.13;8528847;33;20187;-72
2021/08/16 07:40:07;;;;;;;21.25;9.93;;;;;;;14.49;73.87;99662.56;8527083;33;20446;-71
2021/08/16 07:45:11;;;;;;;22.50;12.05;;;;;;;14.95;72.78;99662.91;8532275;33;20532;-71
2021/08/16 07:50:16;;;;;;;22.20;10.98;;;;;;;14.76;73.13;99655.97;8542197;33;20418;-71
2021/08/16 07:55:19;;;;;;;21.17;10.10;;;;;;;15.06;72.73;99650.88;8533109;33;20155;-71
2021/08/16 08:00:22;;;;;;;21.88;10.48;;;;;;;15.08;72.01;99656.94;8531485;33;20148;-72
2021/08/16 08:05:26;;;;;;;25.35;12.20;;;;;;;15.42;71.30;99650.50;8527987;33;20164;-72
2021/08/16 08:10:29;;;;;;;25.70;12.35;;;;;;;15.69;70.91;99660.91;8527405;33;21109;-71
2021/08/16 08:15:33;;;;;;;22.23;11.43;;;;;;;15.92;70.25;99660.13;8526094;33;20462;-71
2021/08/16 08:20:38;;;;;;;21.73;11.80;;;;;;;16.10;69.88;99660.72;8527878;33;20510;-72
2021/08/16 08:25:41;;;;;;;22.40;12.55;;;;;;;16.34;68.67;99677.84;8526884;33;21092;-72
2021/08/16 08:30:46;;;;;;;12.82;7.32;;;;;;;16.28;67.99;99682.13;8525261;33;20422;-71
2021/08/16 08:35:52;;;;;;;19.17;9.82;;;;;;;16.26;68.06;99696.88;8524624;33;20426;-71
2021/08/16 08:41:00;;;;;;;16.17;8.95;;;;;;;16.20;68.09;99701.09;8523564;33;20427;-71
2021/08/16 08:46:04;;;;;;;20.33;11.55;;;;;;;16.39;68.08;99675.44;8523721;33;20144;-71
2021/08/16 08:51:08;;;;;;;30.17;11.27;;;;;;;16.62;67.40;99666.47;8523320;33;20194;-71
2021/08/16 08:56:13;;;;;;;13.63;7.60;;;;;;;15.85;69.21;99686.19;8518368;33;20423;-71
2021/08/16 09:01:16;;;;;;;19.95;10.68;;;;;;;15.98;69.15;99681.06;8514375;33;20465;-71
2021/08/16 09:06:30;;;;;;;14.95;10.48;;;;;;;16.21;68.90;99686.56;8513492;33;20431;-70
2021/08/16 09:11:33;;;;;;;23.85;12.07;;;;;;;16.78;67.63;99674.50;8517771;33;20137;-70
2021/08/16 09:16:39;;;;;;;16.17;8.15;;;;;;;16.62;67.56;99677.31;8521903;33;20424;-72
2021/08/16 09:21:47;;;;;;;14.15;7.65;;;;;;;16.70;66.57;99674.56;8530341;33;20457;-72
2021/08/16 09:26:51;;;;;;;31.85;12.48;;;;;;;16.87;66.93;99664.44;8523158;33;20479;-72
2021/08/16 09:32:03;;;;;;;19.27;9.95;;;;;;;16.76;67.43;99657.56;8520992;33;20915;-72
2021/08/16 09:37:19;;;;;;;16.20;10.10;;;;;;;16.00;72.65;99675.50;8525378;33;20972;-72
2021/08/16 09:42:22;;;;;;;17.45;9.65;;;;;;;15.63;74.49;99680.56;8535670;33;20414;-72
2021/08/16 09:47:26;;;;;;;22.98;11.88;;;;;;;15.62;76.51;99678.00;8544621;33;20141;-72
2021/08/16 09:52:32;;;;;;;16.10;10.10;;;;;;;16.10;73.92;99662.56;8544735;33;20156;-72
2021/08/16 09:57:36;;;;;;;18.70;11.82;;;;;;;16.25;73.23;99670.78;8543769;33;20697;-72
2021/08/16 10:02:39;;;;;;;18.15;10.18;;;;;;;15.79;75.79;99666.09;8546411;33;20594;-72
2021/08/16 10:07:45;;;;;;;16.00;10.07;;;;;;;15.75;75.59;99674.75;8552442;33;20202;-72
2021/08/16 10:12:49;;;;;;;16.40;9.23;;;;;;;15.77;78.00;99670.84;8546661;33;20863;-72
2021/08/16 10:17:52;;;;;;;16.73;8.35;;;;;;;15.17;80.32;99684.84;8539860;33;20784;-72
2021/08/16 10:22:57;;;;;;;15.98;9.20;;;;;;;14.52;85.96;99691.09;8540259;33;20152;-71
2021/08/16 10:28:02;;;;;;;20.60;10.88;;;;;;;14.46;86.05;99681.81;8559236;27;20417;-75
2021/08/16 10:33:06;;;;;;;22.75;12.35;;;;;;;14.39;87.05;99683.47;8530346;33;20417;-74
2021/08/16 10:38:13;;;;;;;23.05;11.55;;;;;;;14.19;87.97;99690.16;8528016;33;20148;-74
2021/08/16 10:43:18;;;;;;;22.33;12.57;;;;;;;14.23;88.06;99700.44;8529074;33;20997;-74
2021/08/16 10:48:25;;;;;;;20.23;11.85;;;;;;;13.79;89.85;99729.47;8525358;33;20148;-73
2021/08/16 10:53:29;;;;;;;6.00;4.05;;;;;;;12.30;90.04;99731.13;8525320;33;20148;-73
2021/08/16 10:58:33;;;;;;;4.38;3.05;;;;;;;11.89;91.28;99749.44;8526534;33;21006;-75
2021/08/16 11:03:36;;;;;;;4.68;1.25;;;;;;;11.91;90.91;99764.44;8525080;33;20456;-73
2021/08/16 11:08:41;;;;;;;0.80;0.45;;;;;;;12.03;90.40;99746.25;8524429;33;20458;-75
2021/08/16 11:13:45;;;;;;;0.30;0.30;;;;;;;12.15;90.82;99741.53;8525273;33;20145;-74
2021/08/16 11:18:55;;;;;;;0.50;0.50;;;;;;;12.74;89.49;99737.47;8524441;33;20172;-74
2021/08/16 11:24:01;;;;;;;0.30;0.30;;;;;;;13.03;88.94;99725.59;8524125;33;20581;-71
2021/08/16 11:29:07;;;;;;;0.38;0.38;;;;;;;12.87;87.63;99726.31;8523423;33;20414;-74
2021/08/16 11:34:10;;;;;;;0.47;0.47;;;;;;;12.72;87.51;99733.22;8523927;33;20504;-74
2021/08/16 11:39:15;;;;;;;0.47;0.47;;;;;;;12.71;88.82;99731.53;8524242;33;20450;-74
2021/08/16 11:44:18;;;;;;;1.23;1.02;;;;;;;12.85;88.22;99733.69;8523793;33;20147;-73
2021/08/16 11:49:26;;;;;;;1.10;0.80;;;;;;;12.87;88.46;99747.03;8522533;33;20466;-73
2021/08/16 11:54:33;;;;;;;2.22;1.10;;;;;;;13.10;87.47;99748.22;8523211;33;20417;-74
2021/08/16 11:59:36;;;;;;;1.33;1.23;;;;;;;13.24;87.07;99744.94;8524597;33;20177;-76
2021/08/16 12:04:40;;;;;;;0.50;0.50;;;;;;;13.34;87.31;99738.63;8523970;33;20528;-74
2021/08/16 12:09:45;;;;;;;1.38;1.35;;;;;;;13.36;86.41;99736.63;8520772;33;20496;-74
2021/08/16 12:14:58;;;;;;;0.38;0.38;;;;;;;13.67;86.71;99727.06;8522729;33;20143;-74
2021/08/16 12:20:05;;;;;;;0.75;0.75;;;;;;;13.43;85.90;99726.91;8522200;33;20987;-76
2021/08/16 12:25:11;;;;;;;1.05;1.05;;;;;;;13.51;86.07;99734.22;8521009;33;20494;-76
2021/08/16 12:30:16;;;;;;;0.55;0.55;;;;;;;13.38;86.01;99746.25;8521686;33;20955;-73
2021/08/16 12:35:22;;;;;;;0.40;0.40;;;;;;;13.27;86.46;99758.16;8521055;33;20608;-76
2021/08/16 12:40:26;;;;;;;0.55;0.55;;;;;;;13.35;85.88;99761.88;8521381;33;20136;-76
2021/08/16 12:45:32;;;;;;;0.57;0.57;;;;;;;13.46;85.71;99769.75;8521717;33;20156;-76
2021/08/16 12:50:37;;;;;;;1.55;1.10;;;;;;;13.56;85.17;99775.06;8520531;33;20353;-75
2021/08/16 12:55:42;;;;;;;1.48;0.73;;;;;;;13.75;84.71;99782.94;8522465;33;20209;-75
2021/08/16 13:00:45;;;;;;;0.40;0.40;;;;;;;13.98;85.23;99776.97;8523559;33;20510;-75
2021/08/16 13:05:53;;;;;;;1.70;1.60;;;;;;;13.94;83.93;99790.81;8530899;33;20448;-75
2021/08/16 13:10:58;;;;;;;0.75;0.70;;;;;;;14.32;83.06;99790.50;8526230;33;20523;-75
2021/08/16 13:16:01;;;;;;;0.63;0.63;;;;;;;14.03;82.07;99789.00;8517604;33;20299;-75
2021/08/16 13:21:06;;;;;;;0.55;0.55;;;;;;;13.70;81.58;99790.66;8519796;33;20463;-76
2021/08/16 13:26:11;;;;;;;1.55;1.48;;;;;;;13.59;81.59;99790.94;8518804;33;21012;-75
2021/08/16 13:31:14;;;;;;;0.20;0.20;;;;;;;13.67;81.30;99791.81;8516326;33;20266;-75
2021/08/16 13:36:17;;;;;;;18.92;2.63;;;;;;;13.80;82.05;99795.97;8517313;33;20881;-75
2021/08/16 13:41:21;;;;;;;7.63;1.77;;;;;;;13.56;82.48;99816.38;8521837;33;20256;-75
2021/08/16 13:46:25;;;;;;;0.40;0.40;;;;;;;13.75;82.27;99815.34;8521712;33;20594;-75
2021/08/16 13:51:28;;;;;;;0.40;0.40;;;;;;;12.60;79.15;99841.22;8526965;33;20311;-75
2021/08/16 13:56:32;;;;;;;0.50;0.50;;;;;;;10.93;84.03;99878.47;8522890;33;20176;-74
2021/08/16 14:01:35;;;;;;;0.30;0.30;;;;;;;10.68;85.31;99874.47;8524564;33;20433;-74
2021/08/16 14:06:40;;;;;;;3.40;0.85;;;;;;;10.84;85.20;99882.00;8527618;33;20286;-75
2021/08/16 14:11:47;;;;;;;0.30;0.30;;;;;;;10.81;86.36;99904.63;8527456;33;20421;-75
2021/08/16 14:16:50;;;;;;;0.28;0.28;;;;;;;10.59;85.66;99894.09;8525668;33;20473;-75
2021/08/16 14:21:53;;;;;;;0.40;0.40;;;;;;;10.75;86.06;99894.44;8527279;33;20419;-75
2021/08/16 14:26:58;;;;;;;0.30;0.30;;;;;;;10.70;85.69;99888.63;8523889;33;20999;-75
2021/08/16 14:32:03;;;;;;;0.30;0.30;;;;;;;10.74;85.30;99902.59;8517383;33;20191;-75
2021/08/16 14:37:06;;;;;;;0.45;0.45;;;;;;;10.91;84.32;99904.63;8516927;33;20710;-75
2021/08/16 14:42:11;;;;;;;3.00;2.15;;;;;;;11.24;83.83;99905.28;8516157;33;20438;-75
2021/08/16 14:47:14;;;;;;;0.28;0.28;;;;;;;11.30;83.43;99903.84;8514458;33;20512;-75
2021/08/16 14:52:17;;;;;;;0.20;0.20;;;;;;;11.68;82.98;99906.56;8515834;33;20145;-73
2021/08/16 14:57:21;;;;;;;0.60;0.60;;;;;;;11.78;82.15;99919.16;8519827;33;20151;-75
2021/08/16 15:02:24;;;;;;;3.90;1.02;;;;;;;11.91;82.21;99923.22;8521054;33;21071;-75
2021/08/16 15:07:28;;;;;;;0.40;0.40;;;;;;;12.05;81.60;99921.09;8517803;33;20398;-75
2021/08/16 15:12:32;;;;;;;0.75;0.60;;;;;;;11.87;80.94;99923.66;8517063;33;20148;-75
2021/08/16 15:17:38;;;;;;;0.30;0.30;;;;;;;11.96;81.65;99922.81;8515349;33;20248;-74
2021/08/16 15:22:41;;;;;;;0.60;0.60;;;;;;;11.53;81.33;99917.91;8518782;33;20307;-75
2021/08/16 15:27:48;;;;;;;1.13;0.82;;;;;;;11.60;82.73;99905.56;8519136;33;20235;-75
2021/08/16 15:32:53;;;;;;;0.28;0.28;;;;;;;11.81;82.43;99921.53;8520251;33;20520;-75
2021/08/16 15:37:56;;;;;;;0.93;0.93;;;;;;;11.80;81.23;99914.47;8518587;33;20610;-73
2021/08/16 15:43:01;;;;;;;1.75;1.65;;;;;;;11.84;81.35;99937.41;8515461;33;20499;-75
2021/08/16 15:48:05;;;;;;;0.73;0.73;;;;;;;12.10;81.67;99932.28;8517097;33;20700;-75
2021/08/16 15:53:08;;;;;;;1.35;1.27;;;;;;;12.40;81.29;99939.31;8516067;33;20198;-75
2021/08/16 15:58:13;;;;;;;0.60;0.60;;;;;;;12.23;80.76;99942.72;8516750;33;20969;-75
2021/08/16 16:03:16;;;;;;;0.30;0.30;;;;;;;12.22;81.05;99949.09;8523174;33;20432;-75
2021/08/16 16:08:19;;;;;;;1.95;1.80;;;;;;;12.13;81.38;99945.44;8526694;33;21123;-75
2021/08/16 16:13:24;;;;;;;0.73;0.70;;;;;;;12.21;81.36;99956.34;8522629;33;21158;-75
2021/08/16 16:18:27;;;;;;;0.40;0.40;;;;;;;12.16;78.86;99953.22;8517990;33;20136;-75
2021/08/16 16:23:32;;;;;;;0.52;0.52;;;;;;;12.26;79.95;99962.13;8518542;33;20291;-74
2021/08/16 16:28:37;;;;;;;0.30;0.30;;;;;;;12.45;79.22;99963.97;8528905;27;20696;-73
2021/08/16 16:33:40;;;;;;;3.40;0.93;;;;;;;13.47;77.07;99963.03;8468638;34;20664;-73
2021/08/16 16:38:43;;;;;;;0.90;0.70;;;;;;;14.45;71.80;99955.72;8469644;34;20172;-73
2021/08/16 16:43:48;;;;;;;0.30;0.30;;;;;;;14.15;71.44;99962.41;8469920;33;20445;-73
2021/08/16 16:48:51;;;;;;;0.50;0.50;;;;;;;14.38;70.54;99973.56;8469785;34;20560;-74
2021/08/16 16:53:54;;;;;;;0.20;0.20;;;;;;;14.13;71.01;99983.34;8468973;34;21203;-72
2021/08/16 16:58:59;;;;;;;0.30;0.30;;;;;;;14.16;71.11;99973.06;8469602;33;20628;-73
2021/08/16 17:04:02;;;;;;;0.40;0.40;;;;;;;15.11;68.38;99972.25;8466526;34;20560;-73
2021/08/16 17:09:05;;;;;;;0.68;0.52;;;;;;;14.81;68.52;99979.91;8465341;34;20145;-75
2021/08/16 17:14:09;;;;;;;0.50;0.50;;;;;;;14.67;67.37;99992.16;8467185;33;20153;-72
2021/08/16 17:19:13;;;;;;;0.68;0.68;;;;;;;14.05;70.19;99994.06;8467978;34;21062;-72
2021/08/16 17:24:16;;;;;;;1.33;1.20;;;;;;;13.70;71.10;99998.47;8466960;34;20910;-73
2021/08/16 17:29:20;;;;;;;0.50;0.50;;;;;;;14.33;69.89;100008.28;8465867;34;20984;-72
2021/08/16 17:34:23;;;;;;;0.30;0.30;;;;;;;14.90;67.71;100013.25;8464851;34;20432;-71
2021/08/16 17:39:28;;;;;;;0.80;0.80;;;;;;;15.80;64.50;100011.69;8466863;34;20556;-72
2021/08/16 17:44:32;;;;;;;0.22;0.22;;;;;;;16.14;61.35;100019.66;8466101;33;20323;-72
2021/08/16 17:49:36;;;;;;;0.60;0.55;;;;;;;15.17;61.31;100013.03;8466836;33;20425;-72
2021/08/16 17:54:39;;;;;;;0.30;0.30;;;;;;;13.99;62.20;100009.06;8473100;34;20216;-72
2021/08/16 17:59:44;;;;;;;0.50;0.50;;;;;;;13.44;60.18;100022.69;8471845;33;20145;-72
2021/08/16 18:04:48;;;;;;;0.50;0.50;;;;;;;13.40;58.77;100016.72;8471517;34;20446;-72
2021/08/16 18:09:51;;;;;;;0.13;0.13;;;;;;;13.05;58.85;100029.13;8471792;34;20149;-72
2021/08/16 18:14:55;;;;;;;0.20;0.20;;;;;;;13.12;59.88;100020.41;8472040;34;20547;-72
2021/08/16 18:19:58;;;;;;;0.20;0.20;;;;;;;12.82;60.94;100035.88;8472104;34;20798;-72
2021/08/16 18:25:03;;;;;;;0.30;0.30;;;;;;;12.70;61.71;100040.59;8468683;34;20473;-72
2021/08/16 18:30:09;;;;;;;0.20;0.20;;;;;;;12.65;62.34;100044.72;8470269;34;20473;-73
2021/08/16 18:35:12;;;;;;;0.20;0.20;;;;;;;12.41;62.64;100048.72;8473016;34;20449;-73
2021/08/16 18:40:16;;;;;;;2.08;1.08;;;;;;;12.39;61.96;100039.94;8469846;34;20932;-73
2021/08/16 18:45:21;;;;;;;0.20;0.20;;;;;;;12.29;62.24;100045.34;8471242;34;21098;-72
2021/08/16 18:50:26;;;;;;;0.50;0.50;;;;;;;12.11;61.14;100068.56;8466994;34;20216;-73
2021/08/16 18:55:29;;;;;;;3.38;1.90;;;;;;;12.09;61.01;100076.78;8467943;34;20138;-73
2021/08/16 19:00:33;;;;;;;8.00;2.60;;;;;;;12.02;61.42;100077.50;8466133;33;20232;-72
2021/08/16 19:05:37;;;;;;;6.85;2.50;;;;;;;12.11;61.26;100077.50;8464682;34;20638;-72
2021/08/16 19:10:40;;;;;;;8.48;2.10;;;;;;;12.12;61.11;100081.91;8466046;34;20146;-72
2021/08/16 19:15:45;;;;;;;5.63;2.50;;;;;;;12.03;61.89;100098.88;8458894;33;20299;-72
2021/08/16 19:20:48;;;;;;;8.27;2.40;;;;;;;11.88;62.00;100103.00;8458262;34;20146;-72
2021/08/16 19:25:51;;;;;;;6.10;2.20;;;;;;;11.90;61.90;100112.63;8459055;33;20236;-72
2021/08/16 19:30:55;;;;;;;7.38;2.20;;;;;;;11.77;62.27;100121.97;8458448;34;20181;-72
2021/08/16 19:36:00;;;;;;;5.45;2.17;;;;;;;11.69;62.50;100125.34;8459262;34;20423;-72
2021/08/16 19:41:03;;;;;;;9.00;2.47;;;;;;;11.83;62.28;100124.09;8464395;34;20700;-72
2021/08/16 19:46:07;;;;;;;5.93;1.70;;;;;;;11.60;62.70;100124.31;8469470;34;20261;-72
2021/08/16 19:51:10;;;;;;;8.18;2.22;;;;;;;11.84;62.23;100123.94;8469119;33;20404;-74
2021/08/16 19:56:15;;;;;;;5.97;1.88;;;;;;;11.93;62.48;100125.81;8467392;33;20422;-73
2021/08/16 20:01:22;;;;;;;3.72;1.75;;;;;;;11.86;62.86;100127.34;8467827;33;20486;-73
2021/08/16 20:06:27;;;;;;;7.65;2.25;;;;;;;11.87;62.79;100128.19;8477833;34;20146;-73
2021/08/16 20:11:30;;;;;;;2.45;1.50;;;;;;;11.82;62.09;100131.31;8480296;34;20548;-74
2021/08/16 20:16:35;;;;;;;5.50;2.30;;;;;;;11.70;61.95;100125.19;8469257;33;20521;-74
2021/08/16 20:21:39;;;;;;;10.00;1.50;;;;;;;11.90;61.35;100130.59;8468788;34;20536;-74
2021/08/16 20:26:42;;;;;;;9.63;1.88;;;;;;;11.97;60.66;100130.91;8463922;34;21187;-74
2021/08/16 20:31:47;;;;;;;6.30;2.53;;;;;;;12.10;60.99;100137.72;8462616;33;20570;-74
2021/08/16 20:36:55;;;;;;;2.80;1.83;;;;;;;11.79;61.74;100157.63;8460648;33;20535;-74
2021/08/16 20:41:58;;;;;;;1.98;1.58;;;;;;;11.88;61.33;100138.81;8462817;34;21111;-74
2021/08/16 20:47:03;;;;;;;5.28;1.90;;;;;;;12.07;61.13;100150.63;8459181;34;21212;-74
2021/08/16 20:52:08;;;;;;;5.38;2.28;;;;;;;11.87;61.98;100142.50;8460680;34;20430;-74
2021/08/16 20:57:11;;;;;;;7.38;1.45;;;;;;;11.78;61.77;100137.09;8459127;33;20465;-75
2021/08/16 21:02:17;;;;;;;5.25;2.20;;;;;;;11.97;61.69;100157.81;8460087;34;20569;-73
2021/08/16 21:07:20;;;;;;;4.75;1.80;;;;;;;11.98;61.80;100156.81;8461702;34;20404;-74
2021/08/16 21:12:24;;;;;;;6.53;3.25;;;;;;;11.82;62.64;100163.63;8465142;34;20894;-73
2021/08/16 21:17:28;;;;;;;4.00;1.83;;;;;;;11.87;62.49;100150.56;8466972;34;20780;-74
2021/08/16 21:22:31;;;;;;;4.38;1.90;;;;;;;11.84;62.75;100172.38;8464489;34;20256;-74
2021/08/16 21:27:34;;;;;;;4.45;2.63;;;;;;;11.64;64.11;100171.47;8462001;34;20465;-74
2021/08/16 21:32:39;;;;;;;2.38;1.95;;;;;;;10.99;70.13;100207.63;8464616;34;20426;-74
2021/08/16 21:37:42;;;;;;;5.47;2.13;;;;;;;10.43;74.00;100187.28;8463488;33;20255;-73
2021/08/16 21:42:46;;;;;;;8.60;2.30;;;;;;;10.01;75.67;100187.19;8474966;34;20240;-74
2021/08/16 21:47:50;;;;;;;5.55;2.33;;;;;;;10.21;75.31;100198.09;8487529;34;20177;-75
2021/08/16 21:52:54;;;;;;;4.90;2.25;;;;;;;10.39;74.11;100175.06;8483480;34;20412;-74
2021/08/16 21:57:57;;;;;;;1.55;1.20;;;;;;;10.56;72.73;100200.53;8477044;34;20288;-74
2021/08/16 22:03:01;;;;;;;8.55;2.95;;;;;;;10.81;73.09;100185.88;8470237;34;21058;-73
2021/08/16 22:08:06;;;;;;;5.38;2.17;;;;;;;10.69;72.29;100187.75;8465604;34;20540;-74
2021/08/16 22:13:10;;;;;;;5.45;2.50;;;;;;;10.93;72.27;100197.41;8464398;34;20248;-73
2021/08/16 22:18:14;;;;;;;6.35;2.50;;;;;;;10.87;71.73;100192.56;8463601;34;20215;-73
2021/08/16 22:23:17;;;;;;;5.70;2.05;;;;;;;11.04;71.01;100200.88;8464473;33;20451;-73
2021/08/16 22:28:20;;;;;;;6.57;2.35;;;;;;;11.13;70.51;100185.81;8491215;28;21040;-71
2021/08/16 22:33:25;;;;;;;2.72;1.75;;;;;;;10.95;71.91;100195.44;8572112;33;20430;-71
2021/08/16 22:38:28;;;;;;;4.50;2.20;;;;;;;10.70;74.98;100194.84;8573907;33;20710;-73
2021/08/16 22:43:32;;;;;;;7.47;2.17;;;;;;;10.65;74.61;100194.38;8577559;33;20448;-74
2021/08/16 22:48:37;;;;;;;8.10;2.17;;;;;;;10.56;74.66;100200.53;8578932;33;20477;-73
2021/08/16 22:53:40;;;;;;;4.80;2.60;;;;;;;10.82;74.49;100191.09;8580641;33;20204;-74
2021/08/16 22:58:43;;;;;;;5.07;2.78;;;;;;;10.76;74.26;100197.00;8582144;33;20417;-73
2021/08/16 23:03:48;;;;;;;3.13;1.95;;;;;;;10.71;75.53;100196.53;8581112;33;20932;-73
2021/08/16 23:08:52;;;;;;;1.73;1.55;;;;;;;10.56;76.38;100213.97;8582824;33;20548;-74
2021/08/16 23:13:56;;;;;;;5.03;1.75;;;;;;;10.66;77.03;100219.41;8576390;33;20222;-73
2021/08/16 23:19:00;;;;;;;3.45;2.03;;;;;;;10.23;80.55;100209.53;8571566;33;20205;-73
2021/08/16 23:24:04;;;;;;;4.53;2.13;;;;;;;10.21;81.03;100204.31;8570350;33;20420;-73
2021/08/16 23:29:08;;;;;;;7.78;2.95;;;;;;;10.12;81.76;100202.38;8569904;33;20500;-73
2021/08/16 23:34:12;;;;;;;5.25;2.35;;;;;;;10.26;81.20;100210.16;8568531;33;20152;-74
2021/08/16 23:39:15;;;;;;;7.03;3.17;;;;;;;10.45;81.09;100200.56;8567196;33;20497;-73